createdAt,value
2019-05-19T00:01:54.079Z,95.40
2019-05-19T00:04:58.916Z,95.71
2019-05-19T00:08:03.806Z,95.71
2019-05-19T00:11:08.724Z,96.56
2019-05-19T00:14:13.480Z,95.55
2019-05-19T00:17:18.231Z,94.53
2019-05-19T00:20:22.988Z,94.22
2019-05-19T00:23:27.791Z,94.11
2019-05-19T00:26:32.545Z,93.99
2019-05-19T00:29:37.634Z,93.92
2019-05-19T00:32:43.598Z,94.50
2019-05-19T00:35:48.346Z,94.45
2019-05-19T00:38:53.100Z,94.56
2019-05-19T00:41:57.929Z,94.33
2019-05-19T00:45:03.003Z,94.67
2019-05-19T00:48:08.364Z,95.48
2019-05-19T00:51:13.790Z,95.59
2019-05-19T00:54:18.536Z,95.21
2019-05-19T00:57:24.409Z,94.99
2019-05-19T01:00:29.258Z,93.97
2019-05-19T01:03:34.292Z,94.86
2019-05-19T01:06:39.355Z,96.63
2019-05-19T01:09:45.234Z,98.24
2019-05-19T01:12:50.016Z,97.76
2019-05-19T01:15:54.779Z,98.10
2019-05-19T01:18:59.508Z,98.39
2019-05-19T01:22:04.635Z,99.13
2019-05-19T01:25:09.965Z,98.54
2019-05-19T01:28:14.808Z,97.82
2019-05-19T01:31:19.866Z,96.96
2019-05-19T01:34:24.678Z,96.16
2019-05-19T01:37:30.427Z,96.70
2019-05-19T01:40:35.174Z,94.76
2019-05-19T01:43:40.257Z,95.27
2019-05-19T01:46:45.016Z,96.05
2019-05-19T01:49:50.083Z,95.71
2019-05-19T01:52:55.484Z,96.63
2019-05-19T01:56:00.246Z,95.85
2019-05-19T01:59:05.476Z,96.13
2019-05-19T02:02:10.589Z,96.38
2019-05-19T02:05:15.852Z,95.68
2019-05-19T02:08:20.779Z,96.56
2019-05-19T02:11:26.103Z,96.48
2019-05-19T02:14:31.107Z,95.97
2019-05-19T02:17:36.622Z,95.85
2019-05-19T02:20:41.371Z,96.36
2019-05-19T02:23:46.105Z,96.01
2019-05-19T02:26:50.840Z,95.00
2019-05-19T02:29:55.913Z,95.17
2019-05-19T02:33:00.993Z,95.45
2019-05-19T02:36:06.284Z,94.82
2019-05-19T02:39:11.370Z,95.27
2019-05-19T02:42:18.721Z,95.33
2019-05-19T02:45:26.636Z,94.70
2019-05-19T02:48:33.467Z,95.26
2019-05-19T02:51:40.841Z,94.01
2019-05-19T02:54:46.602Z,93.48
2019-05-19T02:57:51.695Z,93.67
2019-05-19T03:00:56.441Z,96.00
2019-05-19T03:04:02.192Z,96.15
2019-05-19T03:07:07.498Z,96.44
2019-05-19T03:10:12.719Z,95.13
2019-05-19T03:13:17.466Z,97.19
2019-05-19T03:16:22.209Z,96.90
2019-05-19T03:19:26.967Z,98.07
2019-05-19T03:22:31.767Z,97.41
2019-05-19T03:25:36.653Z,97.09
2019-05-19T03:28:41.939Z,96.53
2019-05-19T03:32:03.064Z,97.86
2019-05-19T03:35:08.040Z,98.29
2019-05-19T03:38:12.988Z,97.29
2019-05-19T03:41:17.741Z,97.63
2019-05-19T03:44:25.971Z,96.15
2019-05-19T03:47:30.717Z,97.01
2019-05-19T03:50:35.479Z,97.33
2019-05-19T03:53:40.246Z,97.22
2019-05-19T03:56:45.012Z,96.27
2019-05-19T03:59:49.754Z,97.70
2019-05-19T04:02:54.521Z,97.31
2019-05-19T04:05:59.882Z,97.23
2019-05-19T04:09:06.129Z,96.35
2019-05-19T04:12:11.204Z,95.90
2019-05-19T04:15:16.628Z,96.10
2019-05-19T04:18:21.379Z,96.75
2019-05-19T04:21:26.126Z,97.83
2019-05-19T04:24:31.270Z,98.20
2019-05-19T04:27:36.419Z,98.06
2019-05-19T04:30:42.070Z,98.33
2019-05-19T04:33:47.138Z,99.11
2019-05-19T04:36:52.040Z,98.58
2019-05-19T04:39:57.150Z,99.28
2019-05-19T04:43:01.976Z,99.35
2019-05-19T04:46:06.713Z,100.00
2019-05-19T04:49:11.876Z,100.00
2019-05-19T04:52:16.732Z,100.00
2019-05-19T04:55:21.817Z,100.00
2019-05-19T04:58:26.901Z,100.00
2019-05-19T05:01:32.077Z,100.00
2019-05-19T05:04:36.854Z,100.00
2019-05-19T05:07:42.136Z,100.00
2019-05-19T05:10:47.884Z,100.00
2019-05-19T05:13:53.006Z,100.00
2019-05-19T05:16:57.955Z,100.00
2019-05-19T05:20:03.221Z,100.00
2019-05-19T05:23:08.013Z,100.00
2019-05-19T05:26:13.761Z,100.00
2019-05-19T05:29:18.879Z,100.00
2019-05-19T05:32:23.757Z,100.00
2019-05-19T05:35:28.834Z,100.00
2019-05-19T05:38:33.955Z,100.00
2019-05-19T05:41:38.793Z,100.00
2019-05-19T05:44:43.606Z,100.00
2019-05-19T05:47:48.407Z,100.00
2019-05-19T05:50:53.635Z,100.00
2019-05-19T05:53:58.403Z,100.00
2019-05-19T05:57:03.284Z,100.00
2019-05-19T06:00:08.335Z,100.00
2019-05-19T06:03:13.114Z,100.00
2019-05-19T06:06:17.975Z,100.00
2019-05-19T06:09:23.043Z,100.00
2019-05-19T06:12:29.321Z,100.00
2019-05-19T06:15:34.186Z,100.00
2019-05-19T06:18:38.992Z,100.00
2019-05-19T06:21:43.971Z,98.43
2019-05-19T06:24:48.792Z,98.76
2019-05-19T06:27:53.870Z,99.69
2019-05-19T06:31:01.868Z,97.95
2019-05-19T06:34:07.390Z,98.16
2019-05-19T06:37:12.276Z,99.21
2019-05-19T06:40:17.486Z,99.09
2019-05-19T06:43:23.150Z,97.97
2019-05-19T06:46:27.936Z,97.43
2019-05-19T06:49:32.987Z,98.09
2019-05-19T06:52:37.767Z,98.69
2019-05-19T06:55:43.137Z,97.86
2019-05-19T06:58:47.943Z,98.29
2019-05-19T07:01:52.911Z,97.27
2019-05-19T07:04:58.271Z,95.95
2019-05-19T07:08:03.711Z,95.19
2019-05-19T07:11:08.544Z,93.52
2019-05-19T07:14:13.666Z,93.38
2019-05-19T07:17:18.616Z,90.63
2019-05-19T07:20:23.479Z,88.77
2019-05-19T07:23:29.063Z,88.79
2019-05-19T07:26:34.319Z,86.10
2019-05-19T07:29:40.232Z,87.28
2019-05-19T07:32:46.550Z,87.03
2019-05-19T07:35:51.394Z,86.50
2019-05-19T07:38:56.552Z,86.23
2019-05-19T07:42:01.720Z,86.23
2019-05-19T07:45:08.020Z,81.31
2019-05-19T07:48:12.788Z,81.31
2019-05-19T07:51:17.995Z,81.28
2019-05-19T07:54:23.141Z,81.07
2019-05-19T07:57:28.445Z,78.54
2019-05-19T08:00:33.593Z,78.54
2019-05-19T08:03:38.349Z,78.07
2019-05-19T08:06:43.117Z,77.93
2019-05-19T08:09:50.190Z,78.16
2019-05-19T08:12:55.696Z,78.36
2019-05-19T08:16:00.795Z,77.29
2019-05-19T08:19:06.031Z,77.69
2019-05-19T08:22:11.315Z,77.23
2019-05-19T08:25:16.173Z,77.62
2019-05-19T08:28:22.121Z,75.42
2019-05-19T08:31:27.777Z,73.89
2019-05-19T08:34:32.542Z,74.40
2019-05-19T08:37:37.403Z,74.51
2019-05-19T08:40:42.531Z,75.86
2019-05-19T08:43:47.976Z,74.06
2019-05-19T08:46:53.788Z,73.04
2019-05-19T08:49:58.921Z,71.85
2019-05-19T08:53:03.774Z,71.30
2019-05-19T08:56:08.840Z,70.66
2019-05-19T08:59:13.653Z,69.84
2019-05-19T09:02:18.513Z,68.00
2019-05-19T09:05:24.047Z,67.94
2019-05-19T09:08:29.321Z,67.93
2019-05-19T09:11:34.172Z,67.06
2019-05-19T09:14:39.024Z,67.75
2019-05-19T09:17:43.752Z,67.12
2019-05-19T09:20:48.512Z,65.58
2019-05-19T09:23:53.350Z,66.74
2019-05-19T09:26:58.156Z,67.91
2019-05-19T09:30:03.028Z,68.84
2019-05-19T09:33:07.950Z,66.96
2019-05-19T09:36:13.486Z,66.63
2019-05-19T09:39:18.517Z,66.73
2019-05-19T09:42:24.797Z,64.82
2019-05-19T09:45:29.758Z,63.03
2019-05-19T09:48:34.566Z,63.28
2019-05-19T09:51:39.529Z,62.92
2019-05-19T09:54:45.918Z,63.43
2019-05-19T09:57:51.131Z,63.50
2019-05-19T10:00:56.277Z,62.13
2019-05-19T10:04:01.339Z,61.50
2019-05-19T10:07:07.220Z,61.34
2019-05-19T10:10:16.069Z,62.04
2019-05-19T10:13:20.880Z,63.71
2019-05-19T10:16:26.009Z,61.98
2019-05-19T10:19:30.928Z,61.49
2019-05-19T10:22:35.720Z,60.62
2019-05-19T10:25:40.644Z,59.98
2019-05-19T10:28:45.567Z,59.89
2019-05-19T10:31:54.293Z,60.36
2019-05-19T10:34:57.085Z,62.05
2019-05-19T10:38:01.940Z,57.96
2019-05-19T10:41:06.889Z,56.91
2019-05-19T10:44:11.752Z,58.26
2019-05-19T10:47:16.997Z,58.32
2019-05-19T10:50:21.802Z,57.49
2019-05-19T10:53:26.749Z,57.53
2019-05-19T10:56:31.970Z,57.28
2019-05-19T10:59:36.862Z,56.72
2019-05-19T11:02:41.650Z,57.28
2019-05-19T11:05:46.712Z,57.69
2019-05-19T11:08:51.512Z,57.76
2019-05-19T11:11:56.675Z,58.25
2019-05-19T11:15:01.811Z,58.72
2019-05-19T11:18:08.094Z,59.31
2019-05-19T11:21:13.242Z,59.74
2019-05-19T11:24:18.269Z,59.45
2019-05-19T11:27:23.314Z,59.52
2019-05-19T11:30:28.118Z,59.46
2019-05-19T11:33:32.931Z,58.86
2019-05-19T11:36:38.078Z,58.99
2019-05-19T11:39:42.904Z,57.66
2019-05-19T11:42:48.187Z,57.50
2019-05-19T11:45:53.288Z,56.13
2019-05-19T11:48:58.653Z,53.67
2019-05-19T11:52:03.494Z,52.05
2019-05-19T11:55:08.838Z,51.27
2019-05-19T11:58:14.201Z,50.52
2019-05-19T12:01:19.315Z,52.93
2019-05-19T12:04:24.501Z,54.33
2019-05-19T12:07:29.789Z,54.11
2019-05-19T12:10:34.722Z,54.03
2019-05-19T12:13:39.449Z,52.86
2019-05-19T12:16:44.404Z,51.21
2019-05-19T12:19:49.486Z,50.17
2019-05-19T12:22:54.321Z,49.97
2019-05-19T12:25:59.331Z,49.70
2019-05-19T12:29:04.194Z,50.68
2019-05-19T12:32:08.972Z,51.45
2019-05-19T12:35:14.140Z,51.45
2019-05-19T12:38:19.277Z,50.22
2019-05-19T12:41:24.365Z,50.15
2019-05-19T12:44:29.108Z,49.53
2019-05-19T12:47:34.123Z,48.08
2019-05-19T12:50:38.939Z,49.94
2019-05-19T12:53:43.923Z,50.17
2019-05-19T12:56:48.737Z,50.42
2019-05-19T12:59:53.576Z,50.41
2019-05-19T13:02:59.324Z,49.37
2019-05-19T13:06:04.231Z,47.92
2019-05-19T13:09:09.588Z,47.29
2019-05-19T13:12:14.433Z,47.49
2019-05-19T13:15:19.620Z,47.83
2019-05-19T13:18:24.681Z,48.83
2019-05-19T13:21:29.806Z,48.04
2019-05-19T13:24:34.948Z,48.07
2019-05-19T13:27:41.036Z,48.52
2019-05-19T13:30:45.783Z,46.96
2019-05-19T13:33:51.843Z,46.65
2019-05-19T13:36:56.918Z,46.35
2019-05-19T13:40:02.287Z,47.75
2019-05-19T13:43:07.436Z,47.54
2019-05-19T13:46:12.331Z,45.76
2019-05-19T13:49:17.210Z,44.79
2019-05-19T13:52:22.046Z,44.13
2019-05-19T13:55:26.900Z,45.56
2019-05-19T13:58:31.979Z,45.39
2019-05-19T14:01:37.222Z,45.60
2019-05-19T14:04:42.392Z,45.45
2019-05-19T14:07:47.239Z,45.61
2019-05-19T14:10:52.274Z,44.79
2019-05-19T14:13:57.134Z,43.49
2019-05-19T14:17:01.962Z,42.19
2019-05-19T14:20:08.108Z,43.28
2019-05-19T14:23:13.146Z,43.25
2019-05-19T14:26:18.591Z,43.35
2019-05-19T14:29:23.425Z,43.89
2019-05-19T14:32:28.644Z,44.56
2019-05-19T14:35:33.902Z,44.63
2019-05-19T14:38:40.747Z,44.40
2019-05-19T14:41:50.265Z,44.91
2019-05-19T14:44:55.802Z,44.02
2019-05-19T14:48:00.637Z,43.08
2019-05-19T14:51:05.394Z,43.68
2019-05-19T14:54:10.211Z,42.14
2019-05-19T14:57:14.965Z,42.05
2019-05-19T15:00:20.728Z,41.03
2019-05-19T15:03:25.813Z,40.39
2019-05-19T15:06:30.597Z,42.22
2019-05-19T15:09:35.655Z,41.93
2019-05-19T15:12:40.411Z,42.91
2019-05-19T15:15:45.730Z,43.94
2019-05-19T15:18:50.699Z,44.84
2019-05-19T15:21:56.722Z,45.35
2019-05-19T15:25:01.927Z,45.51
2019-05-19T15:28:06.862Z,44.83
2019-05-19T15:31:11.679Z,45.01
2019-05-19T15:34:16.425Z,44.58
2019-05-19T15:37:22.470Z,45.00
2019-05-19T15:40:27.433Z,45.04
2019-05-19T15:43:32.496Z,44.63
2019-05-19T15:46:37.584Z,43.55
2019-05-19T15:49:42.426Z,43.60
2019-05-19T15:52:47.338Z,43.28
2019-05-19T15:55:52.098Z,41.97
2019-05-19T15:58:57.398Z,40.11
2019-05-19T16:02:02.508Z,40.59
2019-05-19T16:05:08.231Z,41.18
2019-05-19T16:08:12.953Z,40.53
2019-05-19T16:11:17.874Z,40.63
2019-05-19T16:14:22.683Z,40.70
2019-05-19T16:17:27.397Z,38.21
2019-05-19T16:20:32.356Z,37.49
2019-05-19T16:23:37.116Z,38.00
2019-05-19T16:26:41.860Z,37.28
2019-05-19T16:29:46.562Z,37.45
2019-05-19T16:32:51.542Z,38.16
2019-05-19T16:35:56.484Z,37.28
2019-05-19T16:39:01.225Z,36.67
2019-05-19T16:42:07.631Z,36.86
2019-05-19T16:45:12.983Z,37.64
2019-05-19T16:48:18.024Z,37.84
2019-05-19T16:51:23.343Z,37.29
2019-05-19T16:54:32.885Z,37.59
2019-05-19T16:57:37.715Z,36.76
2019-05-19T17:00:42.429Z,37.24
2019-05-19T17:03:47.391Z,37.75
2019-05-19T17:06:52.379Z,37.55
2019-05-19T17:09:57.089Z,38.37
2019-05-19T17:13:02.231Z,38.73
2019-05-19T17:16:07.165Z,39.31
2019-05-19T17:19:11.901Z,39.68
2019-05-19T17:22:16.603Z,40.15
2019-05-19T17:25:21.556Z,39.83
2019-05-19T17:28:26.272Z,39.87
2019-05-19T17:31:31.133Z,40.32
2019-05-19T17:34:36.185Z,40.52
2019-05-19T17:37:41.536Z,43.23
2019-05-19T17:40:46.329Z,45.44
2019-05-19T17:43:51.166Z,42.22
2019-05-19T17:46:56.155Z,40.85
2019-05-19T17:50:00.875Z,40.81
2019-05-19T17:53:06.334Z,40.89
2019-05-19T17:56:11.357Z,40.48
2019-05-19T17:59:17.020Z,40.84
2019-05-19T18:02:21.775Z,41.63
2019-05-19T18:05:27.585Z,42.21
2019-05-19T18:08:32.387Z,42.87
2019-05-19T18:11:37.152Z,43.34
2019-05-19T18:14:42.033Z,43.82
2019-05-19T18:17:47.056Z,44.60
2019-05-19T18:20:53.364Z,45.22
2019-05-19T18:27:05.612Z,46.83
2019-05-19T18:30:10.832Z,47.23
2019-05-19T18:33:15.555Z,47.54
2019-05-19T18:36:20.341Z,47.67
2019-05-19T18:39:25.318Z,48.15
2019-05-19T18:42:30.115Z,48.03
2019-05-19T18:45:34.932Z,48.45
2019-05-19T18:48:39.742Z,48.89
2019-05-19T18:51:44.906Z,48.94
2019-05-19T18:54:50.597Z,49.23
2019-05-19T18:57:55.366Z,49.68
2019-05-19T19:01:00.294Z,50.03
2019-05-19T19:04:06.178Z,50.68
2019-05-19T19:07:10.963Z,50.67
2019-05-19T19:10:15.738Z,51.16
2019-05-19T19:13:21.725Z,51.17
2019-05-19T19:16:26.795Z,51.63
2019-05-19T19:19:31.775Z,51.99
2019-05-19T19:22:36.620Z,52.41
2019-05-19T19:25:41.785Z,52.14
2019-05-19T19:28:46.861Z,52.75
2019-05-19T19:31:51.661Z,54.10
2019-05-19T19:34:56.739Z,54.60
2019-05-19T19:38:02.095Z,56.46
2019-05-19T19:41:07.084Z,57.28
2019-05-19T19:44:12.020Z,59.91
2019-05-19T19:47:16.816Z,61.03
2019-05-19T19:50:21.741Z,61.27
2019-05-19T19:53:26.575Z,63.84
2019-05-19T19:56:31.492Z,64.72
2019-05-19T19:59:37.190Z,65.11
2019-05-19T20:02:41.981Z,66.44
2019-05-19T20:05:47.131Z,66.90
2019-05-19T20:08:52.157Z,69.91
2019-05-19T20:11:56.990Z,69.05
2019-05-19T20:15:01.830Z,69.37
2019-05-19T20:18:06.632Z,71.95
2019-05-19T20:21:11.560Z,73.35
2019-05-19T20:24:16.530Z,73.57
2019-05-19T20:27:21.526Z,75.16
2019-05-19T20:30:34.992Z,75.23
2019-05-19T20:33:33.415Z,74.99
2019-05-19T20:36:38.490Z,73.94
2019-05-19T20:39:43.385Z,75.45
2019-05-19T20:42:48.188Z,75.34
2019-05-19T20:45:53.045Z,76.03
2019-05-19T20:48:57.891Z,75.39
2019-05-19T20:52:02.676Z,75.56
2019-05-19T20:55:08.626Z,76.50
2019-05-19T20:58:13.339Z,76.09
2019-05-19T21:01:18.367Z,76.06
2019-05-19T21:04:23.082Z,77.30
2019-05-19T21:07:28.159Z,76.36
2019-05-19T21:10:33.140Z,77.51
2019-05-19T21:13:37.984Z,78.81
2019-05-19T21:16:42.749Z,80.35
2019-05-19T21:19:48.709Z,82.75
2019-05-19T21:22:53.469Z,84.99
2019-05-19T21:25:58.499Z,85.30
2019-05-19T21:29:03.326Z,85.33
2019-05-19T21:32:08.040Z,83.75
2019-05-19T21:35:13.123Z,80.20
2019-05-19T21:38:18.156Z,80.12
2019-05-19T21:41:23.158Z,78.36
2019-05-19T21:44:27.951Z,78.17
2019-05-19T21:47:32.750Z,76.80
2019-05-19T21:50:37.872Z,76.00
2019-05-19T21:53:42.740Z,76.14
2019-05-19T21:56:47.846Z,76.44
2019-05-19T21:59:52.907Z,76.47
2019-05-19T22:02:57.800Z,76.12
2019-05-19T22:06:02.584Z,76.51
2019-05-19T22:09:07.478Z,76.94
2019-05-19T22:12:12.548Z,77.07
2019-05-19T22:15:17.361Z,77.92
2019-05-19T22:18:22.206Z,77.91
2019-05-19T22:21:30.157Z,77.97
2019-05-19T22:24:34.964Z,77.87
2019-05-19T22:27:39.676Z,78.12
2019-05-19T22:30:44.530Z,78.40
2019-05-19T22:33:49.616Z,78.17
2019-05-19T22:36:54.698Z,78.21
2019-05-19T22:39:59.717Z,77.40
2019-05-19T22:43:04.550Z,75.66
2019-05-19T22:46:09.686Z,76.36
2019-05-19T22:49:15.045Z,75.71
2019-05-19T22:52:20.167Z,74.87
2019-05-19T22:55:24.947Z,74.80
2019-05-19T22:58:29.678Z,75.86
2019-05-19T23:01:34.726Z,76.28
2019-05-19T23:04:39.457Z,75.76
2019-05-19T23:07:44.236Z,75.28
2019-05-19T23:10:48.975Z,74.64
2019-05-19T23:13:53.967Z,73.97
2019-05-19T23:16:58.695Z,74.45
2019-05-19T23:20:03.813Z,73.89
2019-05-19T23:23:08.679Z,74.96
2019-05-19T23:26:13.442Z,74.99
2019-05-19T23:29:18.429Z,75.76
2019-05-19T23:32:23.535Z,77.56
2019-05-19T23:35:28.546Z,77.95
2019-05-19T23:38:34.342Z,79.53
2019-05-19T23:41:39.084Z,79.64
2019-05-19T23:44:46.796Z,80.22
2019-05-19T23:47:51.539Z,80.33
2019-05-19T23:50:56.271Z,80.73
2019-05-19T23:54:02.581Z,81.47
2019-05-19T23:57:07.316Z,81.45
